Flight Track Log - Related Links

Times and Time Zones

All times are in EDT time to prevent confusion due to time zone crossing. See the BJS542 flight status page for this flight to view local times or setup timezone preferences in your user account.

Time Position Orientation Groundspeed Altitude Reporting Facility
EDT Latitude Longitude Course Direction KTS MPH feet Rate Location/Type
Thu 11:30:53 AM 38.3922 -106.6900 122° Southeast 365 420 15,600  Level Denver Center
Thu 11:31:55 AM 38.2997 -106.6122 147° Southeast 396 456 15,600 1,210 Level Denver Center
Thu 11:32:57 AM 38.2064 -106.5325 146° Southeast 400 460 18,100 2,448 Climbing Denver Center
Thu 11:34:00 AM 38.1757 -106.2013 122° Southeast  Level Estimated
Thu 11:34:00 AM 38.1156 -106.4564 147° Southeast 395 455 20,700  Level Denver Center
Thu 11:35:00 AM 38.1155 -106.0800 122° Southeast  Level Estimated
Thu 11:35:02 AM 38.0089 -106.3664 146° Southeast 404 465 23,900  Level Denver Center
Thu 11:36:00 AM 38.0552 -105.9589 122° Southeast  Level Estimated
Thu 11:36:04 AM 37.9161 -106.2886 147° Southeast 414 476 26,300  Level Denver Center
Thu 11:37:06 AM 37.8064 -106.1956 146° Southeast 424 488 28,900 2,081 Climbing Denver Center
Thu 11:38:08 AM 37.6997 -106.1061 146° Southeast 444 511 30,600 1,645 Climbing Denver Center
Thu 11:39:10 AM 37.5964 -106.0206 147° Southeast 460 529 32,300 1,403 Climbing Denver Center
Thu 11:40:12 AM 37.4775 -105.9219 147° Southeast 483 556 33,500 1,306 Climbing Denver Center
Thu 11:41:14 AM 37.3700 -105.8283 145° Southeast 491 565 35,000 1,016 Climbing Denver Center
Thu 11:42:16 AM 37.2828 -105.6789 126° Southeast 475 547 35,600 968 Climbing Denver Center
Thu 11:43:18 AM 37.2161 -105.5389 121° Southeast 465 535 37,000 1,645 Climbing Denver Center
Thu 11:44:20 AM 37.1408 -105.3847 121° Southeast 465 535 39,000 1,935 Climbing Denver Center
Thu 11:45:22 AM 37.0769 -105.2575 122° Southeast 456 525 41,000 1,452 Climbing Denver Center
Thu 11:46:24 AM 37.0044 -105.1083 121° Southeast 451 519 42,000 1,306 Climbing Denver Center
Thu 11:47:26 AM 36.9406 -104.9806 122° Southeast 441 507 43,700 1,210 Climbing Denver Center
Thu 11:48:28 AM 36.8794 -104.8544 121° Southeast 428 493 44,500 624 Climbing Denver Center
Thu 11:49:31 AM 36.8133 -104.7236 122° Southeast 432 497 45,000 240 Climbing Denver Center
Thu 11:50:33 AM 36.7508 -104.5992 122° Southeast 440 506 45,000  Level Denver Center
Thu 11:51:35 AM 36.6764 -104.4503 122° Southeast 451 519 45,000  Level Denver Center
Thu 11:52:37 AM 36.6114 -104.3214 122° Southeast 458 527 45,000  Level Denver Center
Thu 11:53:39 AM 36.5467 -104.1692 118° Southeast 450 518 45,000  Level Denver Center
Thu 11:54:54 AM 36.4786 -104.0072 118° Southeast 446 513 45,000  Level Albuquerque Center
Thu 11:55:56 AM 36.4214 -103.8703 117° Southeast 444 511 45,000  Level Albuquerque Center
Thu 11:56:58 AM 36.3636 -103.7347 118° Southeast 441 507 45,000  Level Albuquerque Center
Thu 11:58:00 AM 36.2975 -103.5775 118° Southeast 438 504 45,000  Level Albuquerque Center
Thu 11:59:02 AM 36.2397 -103.4408 118° Southeast 440 506 45,000  Level Albuquerque Center
Thu 12:00:04 PM 36.1819 -103.3064 118° Southeast 440 506 45,000  Level Albuquerque Center
Thu 12:01:06 PM 36.1236 -103.1694 118° Southeast 443 510 45,000  Level Albuquerque Center
Thu 12:02:08 PM 36.0653 -103.0336 118° Southeast 442 509 45,000  Level Albuquerque Center
Thu 12:03:10 PM 36.0017 -102.8886 118° Southeast 446 513 45,000  Level Albuquerque Center
Thu 12:04:12 PM 35.9442 -102.7544 118° Southeast 445 512 45,000  Level Albuquerque Center
Thu 12:05:14 PM 35.8861 -102.6197 118° Southeast 445 512 45,000  Level Albuquerque Center
Thu 12:06:16 PM 35.8269 -102.4858 119° Southeast 446 513 45,000  Level Albuquerque Center
Thu 12:07:18 PM 35.7686 -102.3531 118° Southeast 443 510 45,000  Level Albuquerque Center
Thu 12:08:20 PM 35.6969 -102.1931 119° Southeast 443 510 45,000  Level Albuquerque Center
Thu 12:09:22 PM 35.6381 -102.0608 119° Southeast 441 507 45,000  Level Albuquerque Center
Thu 12:10:24 PM 35.5794 -101.9281 118° Southeast 442 509 45,000  Level Albuquerque Center
Thu 12:11:26 PM 35.5172 -101.7869 118° Southeast 440 506 45,000  Level Albuquerque Center
Thu 12:12:28 PM 35.4639 -101.6631 118° Southeast 440 506 45,000  Level Albuquerque Center
Thu 12:13:30 PM 35.3989 -101.5231 120° Southeast 441 507 45,000  Level Albuquerque Center
Thu 12:14:32 PM 35.3389 -101.3931 119° Southeast 440 506 45,000  Level Albuquerque Center
Thu 12:15:34 PM 35.2794 -101.2619 119° Southeast 444 511 45,000  Level Albuquerque Center
Thu 12:16:36 PM 35.2075 -101.1047 119° Southeast 441 507 45,000  Level Albuquerque Center
Thu 12:17:38 PM 35.1472 -100.9733 119° Southeast 444 511 45,000  Level Albuquerque Center
Thu 12:18:40 PM 35.0867 -100.8417 119° Southeast 443 510 45,000  Level Albuquerque Center
Thu 12:19:42 PM 35.0264 -100.7111 119° Southeast 442 509 45,000  Level Albuquerque Center
Thu 12:20:44 PM 34.9653 -100.5808 120° Southeast 443 510 45,000  Level Albuquerque Center
Thu 12:21:46 PM 34.9031 -100.4489 120° Southeast 446 513 45,000  Level Albuquerque Center
Thu 12:22:48 PM 34.8403 -100.3161 120° Southeast 449 517 45,000  Level Albuquerque Center
Thu 12:23:50 PM 34.7669 -100.1586 120° Southeast 447 514 45,000  Level Albuquerque Center
Thu 12:24:52 PM 34.7050 -100.0267 120° Southeast 448 516 45,000 -576 Level Albuquerque Center
Thu 12:25:55 PM 34.6431 -99.8969 120° Southeast 446 513 43,800 -1,248 Descending Albuquerque Center
Thu 12:26:57 PM 34.5806 -99.7633 120° Southeast 452 520 42,400 -1,500 Descending Albuquerque Center
Thu 12:28:07 PM 34.5067 -99.6111 120° Southeast 439 505 40,500 -1,569 Descending Fort Worth Center
Thu 12:29:07 PM 34.4483 -99.4861 119° Southeast 429 494 39,000 -1,500 Descending Fort Worth Center
Thu 12:30:07 PM 34.3875 -99.3664 122° Southeast 429 494 37,500 -1,500 Descending Fort Worth Center
Thu 12:31:07 PM 34.3228 -99.2292 120° Southeast 435 501 36,000 -1,488 Descending Fort Worth Center
Thu 12:32:08 PM 34.2578 -99.1019 122° Southeast 441 507 34,500 -1,636 Descending Fort Worth Center
Thu 12:33:08 PM 34.1928 -98.9703 121° Southeast 436 502 32,700 -1,916 Descending Fort Worth Center
Thu 12:34:07 PM 34.1278 -98.8311 119° Southeast 449 517 30,700 -2,067 Descending Fort Worth Center
Thu 12:35:07 PM 34.0606 -98.6819 119° Southeast 475 547 28,600 -2,050 Descending Fort Worth Center
Thu 12:36:07 PM 33.9950 -98.5458 120° Southeast 486 559 26,600 -1,950 Descending Fort Worth Center
Thu 12:37:07 PM 33.9272 -98.4147 122° Southeast 480 552 24,700 -1,750 Descending Fort Worth Center
Thu 12:38:07 PM 33.8697 -98.3014 121° Southeast 452 520 23,100 -1,800 Descending Fort Worth Center
Thu 12:39:07 PM 33.8017 -98.1658 121° Southeast 430 495 21,100 -1,850 Descending Fort Worth Center
Thu 12:40:07 PM 33.7419 -98.0456 121° Southeast 430 495 19,400 -1,700 Descending Fort Worth Center
Thu 12:41:07 PM 33.6819 -97.9253 121° Southeast 424 488 17,700 -1,650 Descending Fort Worth Center
Thu 12:42:07 PM 33.6300 -97.8200 121° Southeast 419 482 16,100 -1,600 Descending Fort Worth Center
Thu 12:43:07 PM 33.5739 -97.7100 121° Southeast 398 458 14,500 -1,600 Descending Fort Worth Center
Thu 12:44:07 PM 33.5117 -97.5928 122° Southeast 391 450 12,900 -1,600 Descending Fort Worth Center
Thu 12:45:07 PM 33.4594 -97.4881 121° Southeast 379 436 11,300 -1,550 Descending Fort Worth Center
Thu 12:46:07 PM 33.3969 -97.4136 135° Southeast 336 387 9,800 -1,705 Descending Fort Worth Center
Thu 12:46:42 PM 33.3667 -97.3667 128° Southeast 274 315 8,600 -1,960 Descending Dallas / Fort Worth TRACON
Thu 12:47:48 PM 33.3667 -97.2667 90° East 279 321 6,500 -1,750 Descending Dallas / Fort Worth TRACON
Thu 12:48:42 PM 33.3667 -97.1833 90° East 273 314 5,100 -1,263 Descending Dallas / Fort Worth TRACON
Thu 12:49:42 PM 33.3500 -97.1000 103° East 277 319 4,100 -524 Descending Dallas / Fort Worth TRACON
Thu 12:50:48 PM 33.3500 -97.0000 90° East 284 327 4,000 -48 Descending Dallas / Fort Worth TRACON
Thu 12:51:48 PM 33.3167 -96.9000 112° Southeast 273 314 4,000  Level Dallas / Fort Worth TRACON
Thu 12:52:48 PM 33.2667 -96.8500 140° Southeast 258 297 4,000  Level Dallas / Fort Worth TRACON
Thu 12:53:48 PM 33.2000 -96.8333 168° South 266 306 4,000  Level Dallas / Fort Worth TRACON
Thu 12:54:48 PM 33.1167 -96.8333 180° South 259 298 4,000 -474 Level Dallas / Fort Worth TRACON
Thu 12:55:42 PM 33.0667 -96.8333 180° South 250 288 3,100 -850 Descending Dallas / Fort Worth TRACON
Thu 12:56:48 PM 33.0000 -96.8667 203° Southwest 229 264 2,300 -524 Descending Dallas / Fort Worth TRACON
Thu 12:57:48 PM 32.9333 -96.8667 180° South 197 227 2,000 -400 Descending Dallas / Fort Worth TRACON
Thu 12:58:48 PM 32.8833 -96.8667 180° South 170 196 1,500 -500 Descending Dallas / Fort Worth TRACON
Thu 01:00:00 PM 32.8471 -96.8518 180° South  Level Estimated
Thu 01:07:00 PM 32.8471 -96.8518 180° South  Level Estimated

Login

Don't have an account? Register now (free) for customized features, flight alerts, and more!